sensor_id;sensor_type;location;lat;lon;timestamp;pressure;altitude;pressure_sealevel;temperature;humidity
15263;BME280;7733;51.554;13.590;2023-06-26T00:01:27;100486.25;;;22.23;74.07
15263;BME280;7733;51.554;13.590;2023-06-26T00:03:57;100480.06;;;22.23;73.71
15263;BME280;7733;51.554;13.590;2023-06-26T00:06:25;100493.03;;;21.69;76.74
15263;BME280;7733;51.554;13.590;2023-06-26T00:08:55;100494.16;;;21.65;77.47
15263;BME280;7733;51.554;13.590;2023-06-26T00:11:22;100493.69;;;22.02;75.68
15263;BME280;7733;51.554;13.590;2023-06-26T00:13:48;100488.84;;;21.49;78.79
15263;BME280;7733;51.554;13.590;2023-06-26T00:16:14;100487.75;;;21.83;76.49
15263;BME280;7733;51.554;13.590;2023-06-26T00:18:39;100490.56;;;21.66;77.54
15263;BME280;7733;51.554;13.590;2023-06-26T00:21:05;100486.63;;;22.01;74.93
15263;BME280;7733;51.554;13.590;2023-06-26T00:23:31;100491.19;;;21.85;75.81
15263;BME280;7733;51.554;13.590;2023-06-26T00:25:58;100491.94;;;22.17;73.71
15263;BME280;7733;51.554;13.590;2023-06-26T00:28:24;100487.28;;;22.21;73.37
15263;BME280;7733;51.554;13.590;2023-06-26T00:30:49;100488.63;;;22.13;74.20
15263;BME280;7733;51.554;13.590;2023-06-26T00:33:15;100488.50;;;21.55;77.21
15263;BME280;7733;51.554;13.590;2023-06-26T00:35:41;100483.19;;;21.99;74.67
15263;BME280;7733;51.554;13.590;2023-06-26T00:38:07;100481.56;;;21.97;75.20
15263;BME280;7733;51.554;13.590;2023-06-26T00:40:32;100482.50;;;22.11;73.78
15263;BME280;7733;51.554;13.590;2023-06-26T00:42:58;100481.94;;;22.21;73.04
15263;BME280;7733;51.554;13.590;2023-06-26T00:45:24;100478.69;;;22.15;73.54
15263;BME280;7733;51.554;13.590;2023-06-26T00:47:49;100479.41;;;21.28;77.90
15263;BME280;7733;51.554;13.590;2023-06-26T00:50:15;100478.53;;;21.27;78.34
15263;BME280;7733;51.554;13.590;2023-06-26T00:52:43;100480.38;;;21.56;77.00
15263;BME280;7733;51.554;13.590;2023-06-26T00:55:09;100480.13;;;20.98;80.40
15263;BME280;7733;51.554;13.590;2023-06-26T00:57:35;100475.25;;;21.06;80.62
15263;BME280;7733;51.554;13.590;2023-06-26T01:00:02;100477.88;;;21.69;75.63
15263;BME280;7733;51.554;13.590;2023-06-26T01:02:29;100473.03;;;21.76;74.74
15263;BME280;7733;51.554;13.590;2023-06-26T01:05:01;100468.19;;;21.05;79.40
15263;BME280;7733;51.554;13.590;2023-06-26T01:07:33;100468.28;;;21.04;79.16
15263;BME280;7733;51.554;13.590;2023-06-26T01:10:04;100457.34;;;21.40;76.77
15263;BME280;7733;51.554;13.590;2023-06-26T01:12:31;100455.59;;;21.54;75.17
15263;BME280;7733;51.554;13.590;2023-06-26T01:14:59;100461.50;;;21.60;75.62
15263;BME280;7733;51.554;13.590;2023-06-26T01:17:29;100453.41;;;21.31;77.09
15263;BME280;7733;51.554;13.590;2023-06-26T01:20:04;100456.94;;;21.62;75.76
15263;BME280;7733;51.554;13.590;2023-06-26T01:26:19;100452.19;;;21.37;77.01
15263;BME280;7733;51.554;13.590;2023-06-26T01:28:46;100455.72;;;21.06;78.32
15263;BME280;7733;51.554;13.590;2023-06-26T01:31:13;100446.66;;;20.92;79.53
15263;BME280;7733;51.554;13.590;2023-06-26T01:33:41;100445.38;;;20.84;80.04
15263;BME280;7733;51.554;13.590;2023-06-26T01:36:08;100454.97;;;20.38;82.71
15263;BME280;7733;51.554;13.590;2023-06-26T01:38:34;100450.59;;;20.54;81.38
15263;BME280;7733;51.554;13.590;2023-06-26T01:41:00;100449.25;;;20.94;78.64
15263;BME280;7733;51.554;13.590;2023-06-26T01:46:55;100451.22;;;20.90;78.30
15263;BME280;7733;51.554;13.590;2023-06-26T01:52:08;100445.81;;;20.92;77.94
15263;BME280;7733;51.554;13.590;2023-06-26T01:54:55;100439.34;;;20.96;77.22
15263;BME280;7733;51.554;13.590;2023-06-26T01:57:26;100440.31;;;21.11;76.39
15263;BME280;7733;51.554;13.590;2023-06-26T01:59:55;100437.91;;;20.90;77.60
15263;BME280;7733;51.554;13.590;2023-06-26T02:02:24;100434.00;;;20.31;81.00
15263;BME280;7733;51.554;13.590;2023-06-26T02:04:50;100437.34;;;20.52;79.00
15263;BME280;7733;51.554;13.590;2023-06-26T02:07:16;100433.50;;;20.89;76.61
15263;BME280;7733;51.554;13.590;2023-06-26T02:09:42;100427.47;;;20.54;79.05
15263;BME280;7733;51.554;13.590;2023-06-26T02:12:09;100431.50;;;20.77;77.93
15263;BME280;7733;51.554;13.590;2023-06-26T02:14:35;100431.44;;;20.79;77.26
15263;BME280;7733;51.554;13.590;2023-06-26T02:17:00;100439.69;;;20.74;77.04
15263;BME280;7733;51.554;13.590;2023-06-26T02:19:26;100432.28;;;20.48;78.97
15263;BME280;7733;51.554;13.590;2023-06-26T02:21:56;100429.81;;;20.10;80.72
15263;BME280;7733;51.554;13.590;2023-06-26T02:24:21;100430.41;;;20.15;80.23
15263;BME280;7733;51.554;13.590;2023-06-26T02:26:47;100426.00;;;20.49;79.01
15263;BME280;7733;51.554;13.590;2023-06-26T02:29:15;100424.47;;;20.76;76.49
15263;BME280;7733;51.554;13.590;2023-06-26T02:31:41;100423.50;;;20.77;76.52
15263;BME280;7733;51.554;13.590;2023-06-26T02:34:07;100428.78;;;20.63;77.48
15263;BME280;7733;51.554;13.590;2023-06-26T02:36:32;100433.94;;;20.66;77.54
15263;BME280;7733;51.554;13.590;2023-06-26T02:38:58;100426.25;;;20.44;78.69
15263;BME280;7733;51.554;13.590;2023-06-26T02:41:24;100424.28;;;20.48;78.94
15263;BME280;7733;51.554;13.590;2023-06-26T02:43:49;100426.53;;;20.71;77.38
15263;BME280;7733;51.554;13.590;2023-06-26T02:46:15;100427.84;;;20.64;77.29
15263;BME280;7733;51.554;13.590;2023-06-26T02:48:41;100427.53;;;20.53;77.75
15263;BME280;7733;51.554;13.590;2023-06-26T02:51:07;100419.13;;;20.60;76.85
15263;BME280;7733;51.554;13.590;2023-06-26T02:53:33;100422.50;;;20.64;76.97
15263;BME280;7733;51.554;13.590;2023-06-26T02:55:59;100424.44;;;20.60;77.02
15263;BME280;7733;51.554;13.590;2023-06-26T02:58:25;100416.53;;;20.43;77.49
15263;BME280;7733;51.554;13.590;2023-06-26T03:00:50;100418.25;;;20.60;76.64
15263;BME280;7733;51.554;13.590;2023-06-26T03:03:17;100417.88;;;20.17;79.46
15263;BME280;7733;51.554;13.590;2023-06-26T03:05:43;100419.41;;;20.39;77.87
15263;BME280;7733;51.554;13.590;2023-06-26T03:08:09;100421.44;;;20.33;78.08
15263;BME280;7733;51.554;13.590;2023-06-26T03:10:34;100424.41;;;19.60;82.48
15263;BME280;7733;51.554;13.590;2023-06-26T03:13:00;100418.09;;;20.30;78.88
15263;BME280;7733;51.554;13.590;2023-06-26T03:15:26;100422.44;;;19.98;80.90
15263;BME280;7733;51.554;13.590;2023-06-26T03:17:52;100415.03;;;19.70;82.40
15263;BME280;7733;51.554;13.590;2023-06-26T03:20:17;100419.34;;;19.90;81.75
15263;BME280;7733;51.554;13.590;2023-06-26T03:22:43;100419.59;;;20.18;79.33
15263;BME280;7733;51.554;13.590;2023-06-26T03:25:09;100405.94;;;20.42;77.49
15263;BME280;7733;51.554;13.590;2023-06-26T03:27:34;100409.41;;;20.26;77.91
15263;BME280;7733;51.554;13.590;2023-06-26T03:30:00;100403.88;;;19.63;81.97
15263;BME280;7733;51.554;13.590;2023-06-26T03:32:26;100397.03;;;20.25;77.95
15263;BME280;7733;51.554;13.590;2023-06-26T03:34:52;100397.81;;;20.27;77.41
15263;BME280;7733;51.554;13.590;2023-06-26T03:37:18;100399.09;;;20.36;76.94
15263;BME280;7733;51.554;13.590;2023-06-26T03:39:44;100398.81;;;20.58;76.07
15263;BME280;7733;51.554;13.590;2023-06-26T03:42:10;100392.72;;;20.56;76.08
15263;BME280;7733;51.554;13.590;2023-06-26T03:44:36;100392.81;;;20.54;77.17
15263;BME280;7733;51.554;13.590;2023-06-26T03:47:01;100395.97;;;20.61;77.06
15263;BME280;7733;51.554;13.590;2023-06-26T03:49:27;100396.22;;;20.41;78.82
15263;BME280;7733;51.554;13.590;2023-06-26T03:51:53;100401.16;;;19.81;81.39
15263;BME280;7733;51.554;13.590;2023-06-26T03:54:19;100401.31;;;19.95;80.85
15263;BME280;7733;51.554;13.590;2023-06-26T03:56:44;100400.88;;;19.87;81.35
15263;BME280;7733;51.554;13.590;2023-06-26T03:59:10;100398.69;;;20.28;78.29
15263;BME280;7733;51.554;13.590;2023-06-26T04:01:37;100394.06;;;20.14;78.93
15263;BME280;7733;51.554;13.590;2023-06-26T04:04:03;100393.66;;;19.89;81.18
15263;BME280;7733;51.554;13.590;2023-06-26T04:06:29;100397.78;;;19.25;86.77
15263;BME280;7733;51.554;13.590;2023-06-26T04:08:57;100396.06;;;19.93;83.40
15263;BME280;7733;51.554;13.590;2023-06-26T04:11:23;100400.53;;;19.93;83.50
15263;BME280;7733;51.554;13.590;2023-06-26T04:13:50;100387.25;;;20.26;81.77
15263;BME280;7733;51.554;13.590;2023-06-26T04:16:15;100389.03;;;19.92;85.30
15263;BME280;7733;51.554;13.590;2023-06-26T04:18:41;100397.53;;;20.49;81.67
15263;BME280;7733;51.554;13.590;2023-06-26T04:21:09;100395.78;;;20.15;84.75
15263;BME280;7733;51.554;13.590;2023-06-26T04:23:37;100388.00;;;20.45;82.83
15263;BME280;7733;51.554;13.590;2023-06-26T04:26:04;100389.09;;;20.57;82.56
15263;BME280;7733;51.554;13.590;2023-06-26T04:28:32;100392.03;;;20.52;84.25
15263;BME280;7733;51.554;13.590;2023-06-26T04:30:59;100393.59;;;20.72;83.20
15263;BME280;7733;51.554;13.590;2023-06-26T04:33:26;100395.31;;;20.73;83.76
15263;BME280;7733;51.554;13.590;2023-06-26T04:35:53;100393.34;;;20.92;82.46
15263;BME280;7733;51.554;13.590;2023-06-26T04:38:20;100401.59;;;20.88;84.01
15263;BME280;7733;51.554;13.590;2023-06-26T04:40:47;100402.41;;;21.20;82.04
15263;BME280;7733;51.554;13.590;2023-06-26T04:43:13;100399.16;;;21.31;81.53
15263;BME280;7733;51.554;13.590;2023-06-26T04:45:39;100391.16;;;21.15;82.75
15263;BME280;7733;51.554;13.590;2023-06-26T04:48:05;100392.97;;;21.30;81.92
15263;BME280;7733;51.554;13.590;2023-06-26T04:50:32;100390.59;;;21.25;82.06
15263;BME280;7733;51.554;13.590;2023-06-26T04:52:59;100387.41;;;21.49;81.70
15263;BME280;7733;51.554;13.590;2023-06-26T04:55:25;100391.16;;;21.61;81.09
15263;BME280;7733;51.554;13.590;2023-06-26T04:57:51;100382.66;;;21.54;81.32
15263;BME280;7733;51.554;13.590;2023-06-26T05:00:18;100378.00;;;21.28;83.54
15263;BME280;7733;51.554;13.590;2023-06-26T05:02:43;100381.34;;;21.61;82.32
15263;BME280;7733;51.554;13.590;2023-06-26T05:05:09;100376.59;;;21.36;84.22
15263;BME280;7733;51.554;13.590;2023-06-26T05:07:36;100374.84;;;21.51;84.04
15263;BME280;7733;51.554;13.590;2023-06-26T05:10:02;100375.41;;;21.86;82.65
15263;BME280;7733;51.554;13.590;2023-06-26T05:12:28;100370.31;;;21.81;83.28
15263;BME280;7733;51.554;13.590;2023-06-26T05:14:54;100369.09;;;22.01;82.93
15263;BME280;7733;51.554;13.590;2023-06-26T05:17:19;100366.38;;;22.31;80.38
15263;BME280;7733;51.554;13.590;2023-06-26T05:19:46;100365.22;;;22.07;82.49
15263;BME280;7733;51.554;13.590;2023-06-26T05:22:13;100355.88;;;22.28;81.04
15263;BME280;7733;51.554;13.590;2023-06-26T05:24:39;100359.88;;;22.21;81.29
15263;BME280;7733;51.554;13.590;2023-06-26T05:27:06;100361.56;;;22.65;78.72
15263;BME280;7733;51.554;13.590;2023-06-26T05:29:33;100364.34;;;22.63;79.74
15263;BME280;7733;51.554;13.590;2023-06-26T05:32:00;100358.94;;;22.77;78.70
15263;BME280;7733;51.554;13.590;2023-06-26T05:34:26;100356.44;;;22.89;77.65
15263;BME280;7733;51.554;13.590;2023-06-26T05:37:01;100346.06;;;22.84;78.51
15263;BME280;7733;51.554;13.590;2023-06-26T05:39:27;100341.09;;;23.05;77.12
15263;BME280;7733;51.554;13.590;2023-06-26T05:41:53;100335.56;;;23.08;76.53
15263;BME280;7733;51.554;13.590;2023-06-26T05:44:19;100338.56;;;23.16;76.45
15263;BME280;7733;51.554;13.590;2023-06-26T05:46:46;100339.78;;;23.25;75.25
15263;BME280;7733;51.554;13.590;2023-06-26T05:49:11;100342.56;;;23.36;75.12
15263;BME280;7733;51.554;13.590;2023-06-26T05:51:38;100347.47;;;23.56;74.24
15263;BME280;7733;51.554;13.590;2023-06-26T05:54:04;100332.88;;;23.60;73.37
15263;BME280;7733;51.554;13.590;2023-06-26T05:56:30;100332.84;;;23.48;73.11
15263;BME280;7733;51.554;13.590;2023-06-26T05:58:57;100330.50;;;23.43;73.83
15263;BME280;7733;51.554;13.590;2023-06-26T06:01:23;100318.44;;;23.88;71.64
15263;BME280;7733;51.554;13.590;2023-06-26T06:03:50;100319.81;;;23.81;72.55
15263;BME280;7733;51.554;13.590;2023-06-26T06:06:17;100316.59;;;24.02;70.59
15263;BME280;7733;51.554;13.590;2023-06-26T06:08:42;100312.75;;;23.93;71.06
15263;BME280;7733;51.554;13.590;2023-06-26T06:11:08;100315.16;;;24.21;68.88
15263;BME280;7733;51.554;13.590;2023-06-26T06:13:34;100319.97;;;24.42;69.02
15263;BME280;7733;51.554;13.590;2023-06-26T06:16:00;100314.19;;;24.48;69.10
15263;BME280;7733;51.554;13.590;2023-06-26T06:18:26;100314.81;;;24.51;68.28
15263;BME280;7733;51.554;13.590;2023-06-26T06:20:51;100318.00;;;24.56;67.31
15263;BME280;7733;51.554;13.590;2023-06-26T06:23:18;100321.00;;;24.65;66.51
15263;BME280;7733;51.554;13.590;2023-06-26T06:25:44;100313.97;;;24.75;66.41
15263;BME280;7733;51.554;13.590;2023-06-26T06:28:09;100311.81;;;24.80;66.42
15263;BME280;7733;51.554;13.590;2023-06-26T06:30:35;100316.09;;;24.82;66.23
15263;BME280;7733;51.554;13.590;2023-06-26T06:33:01;100310.22;;;25.01;65.77
15263;BME280;7733;51.554;13.590;2023-06-26T06:35:27;100309.06;;;25.16;65.77
15263;BME280;7733;51.554;13.590;2023-06-26T06:37:53;100309.56;;;25.22;65.42
15263;BME280;7733;51.554;13.590;2023-06-26T06:40:18;100309.56;;;25.22;64.73
15263;BME280;7733;51.554;13.590;2023-06-26T06:42:44;100308.88;;;25.31;64.05
15263;BME280;7733;51.554;13.590;2023-06-26T06:45:10;100310.41;;;24.87;65.60
15263;BME280;7733;51.554;13.590;2023-06-26T06:47:36;100307.19;;;25.41;64.71
15263;BME280;7733;51.554;13.590;2023-06-26T06:50:02;100302.19;;;25.36;65.69
15263;BME280;7733;51.554;13.590;2023-06-26T06:52:38;100298.22;;;25.64;64.71
15263;BME280;7733;51.554;13.590;2023-06-26T06:55:07;100302.56;;;25.89;63.28
15263;BME280;7733;51.554;13.590;2023-06-26T06:57:39;100301.06;;;25.74;63.32
15263;BME280;7733;51.554;13.590;2023-06-26T07:00:07;100299.25;;;26.08;61.50
15263;BME280;7733;51.554;13.590;2023-06-26T07:02:41;100302.22;;;25.59;63.35
15263;BME280;7733;51.554;13.590;2023-06-26T07:05:08;100302.63;;;25.65;63.31
15263;BME280;7733;51.554;13.590;2023-06-26T07:07:36;100300.13;;;25.86;62.16
15263;BME280;7733;51.554;13.590;2023-06-26T07:10:13;100293.50;;;26.24;61.93
15263;BME280;7733;51.554;13.590;2023-06-26T07:12:39;100286.78;;;26.29;61.18
15263;BME280;7733;51.554;13.590;2023-06-26T07:15:06;100279.22;;;26.34;61.61
15263;BME280;7733;51.554;13.590;2023-06-26T07:17:33;100287.00;;;26.49;59.77
15263;BME280;7733;51.554;13.590;2023-06-26T07:20:01;100281.63;;;26.49;61.04
15263;BME280;7733;51.554;13.590;2023-06-26T07:22:27;100290.91;;;26.56;61.04
15263;BME280;7733;51.554;13.590;2023-06-26T07:24:52;100285.06;;;26.40;59.87
15263;BME280;7733;51.554;13.590;2023-06-26T07:27:19;100280.06;;;26.24;60.46
15263;BME280;7733;51.554;13.590;2023-06-26T07:29:45;100285.56;;;26.45;60.05
15263;BME280;7733;51.554;13.590;2023-06-26T07:32:11;100284.53;;;26.68;59.09
15263;BME280;7733;51.554;13.590;2023-06-26T07:34:37;100269.97;;;27.03;58.62
15263;BME280;7733;51.554;13.590;2023-06-26T07:37:03;100273.59;;;27.13;58.24
15263;BME280;7733;51.554;13.590;2023-06-26T07:39:30;100263.63;;;27.45;57.95
15263;BME280;7733;51.554;13.590;2023-06-26T07:41:56;100271.72;;;27.66;57.63
15263;BME280;7733;51.554;13.590;2023-06-26T07:44:25;100268.16;;;27.66;56.49
15263;BME280;7733;51.554;13.590;2023-06-26T07:46:50;100274.44;;;27.76;55.92
15263;BME280;7733;51.554;13.590;2023-06-26T07:49:16;100265.38;;;27.77;55.97
15263;BME280;7733;51.554;13.590;2023-06-26T07:51:42;100260.22;;;27.64;56.26
15263;BME280;7733;51.554;13.590;2023-06-26T07:54:08;100269.84;;;27.97;54.50
15263;BME280;7733;51.554;13.590;2023-06-26T07:59:24;100264.63;;;28.36;53.03
15263;BME280;7733;51.554;13.590;2023-06-26T08:01:52;100256.56;;;28.45;52.78
15263;BME280;7733;51.554;13.590;2023-06-26T08:04:27;100256.97;;;28.60;50.81
15263;BME280;7733;51.554;13.590;2023-06-26T08:06:56;100251.19;;;28.74;50.30
15263;BME280;7733;51.554;13.590;2023-06-26T08:09:25;100247.94;;;28.90;50.84
15263;BME280;7733;51.554;13.590;2023-06-26T08:11:51;100245.53;;;28.87;51.77
15263;BME280;7733;51.554;13.590;2023-06-26T08:14:17;100237.56;;;29.05;51.69
15263;BME280;7733;51.554;13.590;2023-06-26T08:16:44;100239.09;;;29.46;48.75
15263;BME280;7733;51.554;13.590;2023-06-26T08:19:11;100231.25;;;29.53;47.93
15263;BME280;7733;51.554;13.590;2023-06-26T08:21:37;100236.03;;;29.59;47.84
15263;BME280;7733;51.554;13.590;2023-06-26T08:24:03;100237.97;;;29.76;47.74
15263;BME280;7733;51.554;13.590;2023-06-26T08:26:29;100237.91;;;29.58;47.72
15263;BME280;7733;51.554;13.590;2023-06-26T08:28:54;100228.75;;;29.69;46.90
15263;BME280;7733;51.554;13.590;2023-06-26T08:31:20;100236.13;;;29.01;47.96
15263;BME280;7733;51.554;13.590;2023-06-26T08:33:47;100225.44;;;29.85;47.68
15263;BME280;7733;51.554;13.590;2023-06-26T08:36:13;100225.88;;;30.35;47.32
15263;BME280;7733;51.554;13.590;2023-06-26T08:38:39;100226.91;;;30.52;46.36
15263;BME280;7733;51.554;13.590;2023-06-26T08:41:08;100210.47;;;30.18;45.88
15263;BME280;7733;51.554;13.590;2023-06-26T08:43:35;100214.84;;;30.82;45.12
15263;BME280;7733;51.554;13.590;2023-06-26T08:46:01;100222.44;;;30.96;45.48
15263;BME280;7733;51.554;13.590;2023-06-26T08:48:32;100220.06;;;31.37;45.24
15263;BME280;7733;51.554;13.590;2023-06-26T08:51:05;100216.53;;;31.18;44.68
15263;BME280;7733;51.554;13.590;2023-06-26T08:53:41;100220.25;;;30.46;44.43
15263;BME280;7733;51.554;13.590;2023-06-26T08:56:09;100225.34;;;30.32;45.58
15263;BME280;7733;51.554;13.590;2023-06-26T08:58:38;100216.78;;;31.25;43.83
15263;BME280;7733;51.554;13.590;2023-06-26T09:01:04;100210.88;;;31.12;43.75
15263;BME280;7733;51.554;13.590;2023-06-26T09:03:32;100217.16;;;31.12;41.71
15263;BME280;7733;51.554;13.590;2023-06-26T09:05:58;100210.53;;;31.33;42.78
15263;BME280;7733;51.554;13.590;2023-06-26T09:08:24;100211.00;;;31.54;41.83
15263;BME280;7733;51.554;13.590;2023-06-26T09:10:51;100211.97;;;31.71;42.89
15263;BME280;7733;51.554;13.590;2023-06-26T09:13:18;100204.63;;;31.89;41.83
15263;BME280;7733;51.554;13.590;2023-06-26T09:15:45;100206.97;;;31.84;40.14
15263;BME280;7733;51.554;13.590;2023-06-26T09:18:12;100200.63;;;32.18;39.34
15263;BME280;7733;51.554;13.590;2023-06-26T09:20:38;100208.69;;;32.44;39.47
15263;BME280;7733;51.554;13.590;2023-06-26T09:23:04;100199.22;;;32.72;38.90
15263;BME280;7733;51.554;13.590;2023-06-26T09:25:31;100200.91;;;31.98;39.23
15263;BME280;7733;51.554;13.590;2023-06-26T09:27:57;100190.09;;;32.15;39.99
15263;BME280;7733;51.554;13.590;2023-06-26T09:30:23;100200.06;;;32.48;40.59
15263;BME280;7733;51.554;13.590;2023-06-26T09:32:50;100184.63;;;32.49;40.61
15263;BME280;7733;51.554;13.590;2023-06-26T09:35:20;100192.75;;;32.57;40.38
15263;BME280;7733;51.554;13.590;2023-06-26T09:37:45;100192.78;;;32.73;39.52
15263;BME280;7733;51.554;13.590;2023-06-26T09:40:13;100177.34;;;32.90;39.52
15263;BME280;7733;51.554;13.590;2023-06-26T09:42:39;100177.81;;;33.18;39.10
15263;BME280;7733;51.554;13.590;2023-06-26T09:45:05;100183.81;;;32.06;41.06
15263;BME280;7733;51.554;13.590;2023-06-26T09:47:34;100183.66;;;32.16;40.74
15263;BME280;7733;51.554;13.590;2023-06-26T09:50:02;100180.59;;;32.85;38.85
15263;BME280;7733;51.554;13.590;2023-06-26T09:52:29;100177.84;;;33.02;38.16
15263;BME280;7733;51.554;13.590;2023-06-26T09:55:15;100166.28;;;33.00;38.97
15263;BME280;7733;51.554;13.590;2023-06-26T09:57:42;100164.19;;;33.42;39.41
15263;BME280;7733;51.554;13.590;2023-06-26T10:00:09;100167.28;;;33.78;38.09
15263;BME280;7733;51.554;13.590;2023-06-26T10:02:35;100156.69;;;33.52;37.89
15263;BME280;7733;51.554;13.590;2023-06-26T10:05:01;100156.56;;;33.46;38.02
15263;BME280;7733;51.554;13.590;2023-06-26T10:07:27;100160.03;;;33.71;37.59
15263;BME280;7733;51.554;13.590;2023-06-26T10:09:56;100149.94;;;33.79;37.95
15263;BME280;7733;51.554;13.590;2023-06-26T10:12:32;100150.59;;;33.50;38.78
15263;BME280;7733;51.554;13.590;2023-06-26T10:15:01;100156.78;;;33.12;38.85
15263;BME280;7733;51.554;13.590;2023-06-26T10:17:34;100154.28;;;33.57;35.77
15263;BME280;7733;51.554;13.590;2023-06-26T10:20:03;100153.00;;;33.21;37.49
15263;BME280;7733;51.554;13.590;2023-06-26T10:22:39;100146.59;;;32.81;36.69
15263;BME280;7733;51.554;13.590;2023-06-26T10:25:09;100141.50;;;32.94;36.72
15263;BME280;7733;51.554;13.590;2023-06-26T10:27:42;100139.44;;;33.13;37.04
15263;BME280;7733;51.554;13.590;2023-06-26T10:30:18;100129.00;;;33.49;35.64
15263;BME280;7733;51.554;13.590;2023-06-26T10:32:47;100129.63;;;33.98;36.13
15263;BME280;7733;51.554;13.590;2023-06-26T10:35:14;100130.69;;;33.50;36.38
15263;BME280;7733;51.554;13.590;2023-06-26T10:37:49;100116.69;;;34.23;35.72
15263;BME280;7733;51.554;13.590;2023-06-26T10:40:25;100126.38;;;33.64;35.62
15263;BME280;7733;51.554;13.590;2023-06-26T10:43:05;100112.47;;;34.21;34.52
15263;BME280;7733;51.554;13.590;2023-06-26T10:45:34;100109.63;;;34.14;34.46
15263;BME280;7733;51.554;13.590;2023-06-26T10:48:01;100114.81;;;32.98;35.04
15263;BME280;7733;51.554;13.590;2023-06-26T10:50:32;100116.00;;;32.63;35.21
15263;BME280;7733;51.554;13.590;2023-06-26T10:56:07;100102.84;;;33.32;35.79
15263;BME280;7733;51.554;13.590;2023-06-26T11:01:23;100102.63;;;32.86;35.86
15263;BME280;7733;51.554;13.590;2023-06-26T11:04:00;100095.69;;;33.86;34.02
15263;BME280;7733;51.554;13.590;2023-06-26T11:06:28;100095.16;;;34.13;33.94
15263;BME280;7733;51.554;13.590;2023-06-26T11:09:17;100104.59;;;33.64;33.73
15263;BME280;7733;51.554;13.590;2023-06-26T11:14:31;100096.34;;;33.88;35.24
15263;BME280;7733;51.554;13.590;2023-06-26T11:16:58;100090.97;;;33.72;34.50
15263;BME280;7733;51.554;13.590;2023-06-26T11:19:27;100088.13;;;33.96;34.11
15263;BME280;7733;51.554;13.590;2023-06-26T11:21:59;100085.22;;;33.67;35.41
15263;BME280;7733;51.554;13.590;2023-06-26T11:24:28;100088.00;;;32.95;35.78
15263;BME280;7733;51.554;13.590;2023-06-26T11:26:59;100083.31;;;33.28;34.98
15263;BME280;7733;51.554;13.590;2023-06-26T11:29:26;100093.34;;;33.36;36.03
15263;BME280;7733;51.554;13.590;2023-06-26T11:32:00;100084.06;;;33.06;34.98
15263;BME280;7733;51.554;13.590;2023-06-26T11:34:30;100091.91;;;32.52;36.08
15263;BME280;7733;51.554;13.590;2023-06-26T11:36:57;100092.06;;;32.26;35.56
15263;BME280;7733;51.554;13.590;2023-06-26T11:39:23;100087.34;;;32.44;35.87
15263;BME280;7733;51.554;13.590;2023-06-26T11:41:49;100086.78;;;32.16;36.58
15263;BME280;7733;51.554;13.590;2023-06-26T11:44:14;100072.72;;;32.70;35.73
15263;BME280;7733;51.554;13.590;2023-06-26T11:46:45;100071.53;;;32.80;37.14
15263;BME280;7733;51.554;13.590;2023-06-26T11:49:11;100061.69;;;32.87;37.30
15263;BME280;7733;51.554;13.590;2023-06-26T11:51:37;100063.31;;;33.13;35.39
15263;BME280;7733;51.554;13.590;2023-06-26T11:54:04;100064.78;;;33.71;35.34
15263;BME280;7733;51.554;13.590;2023-06-26T11:56:30;100055.50;;;33.02;34.65
15263;BME280;7733;51.554;13.590;2023-06-26T11:59:07;100064.56;;;33.41;36.36
15263;BME280;7733;51.554;13.590;2023-06-26T12:04:02;100064.75;;;32.60;36.63
15263;BME280;7733;51.554;13.590;2023-06-26T12:06:35;100061.91;;;33.33;36.78
15263;BME280;7733;51.554;13.590;2023-06-26T12:09:05;100059.56;;;33.61;36.38
15263;BME280;7733;51.554;13.590;2023-06-26T12:11:33;100054.19;;;32.97;37.04
15263;BME280;7733;51.554;13.590;2023-06-26T12:14:00;100055.03;;;32.98;38.84
15263;BME280;7733;51.554;13.590;2023-06-26T12:16:29;100047.28;;;33.96;35.08
15263;BME280;7733;51.554;13.590;2023-06-26T12:19:00;100037.44;;;33.25;35.79
15263;BME280;7733;51.554;13.590;2023-06-26T12:24:08;100027.53;;;33.40;36.84
15263;BME280;7733;51.554;13.590;2023-06-26T12:26:35;100024.78;;;33.48;34.31
15263;BME280;7733;51.554;13.590;2023-06-26T12:29:18;100015.56;;;34.03;35.43
15263;BME280;7733;51.554;13.590;2023-06-26T12:31:51;100006.00;;;34.68;32.84
15263;BME280;7733;51.554;13.590;2023-06-26T12:34:21;100017.22;;;34.12;33.64
15263;BME280;7733;51.554;13.590;2023-06-26T12:36:50;100016.38;;;34.12;35.14
15263;BME280;7733;51.554;13.590;2023-06-26T12:39:19;100015.06;;;34.23;35.56
15263;BME280;7733;51.554;13.590;2023-06-26T12:44:27;100008.97;;;34.21;34.50
15263;BME280;7733;51.554;13.590;2023-06-26T12:46:59;100007.59;;;34.62;34.41
15263;BME280;7733;51.554;13.590;2023-06-26T12:49:36;99995.84;;;35.21;33.08
15263;BME280;7733;51.554;13.590;2023-06-26T12:52:09;99996.34;;;35.24;32.54
15263;BME280;7733;51.554;13.590;2023-06-26T12:54:36;99999.38;;;34.85;34.23
15263;BME280;7733;51.554;13.590;2023-06-26T12:57:02;99987.53;;;34.40;33.70
15263;BME280;7733;51.554;13.590;2023-06-26T12:59:33;99994.47;;;35.10;33.93
15263;BME280;7733;51.554;13.590;2023-06-26T13:01:59;99987.03;;;35.04;33.47
15263;BME280;7733;51.554;13.590;2023-06-26T13:04:26;99987.28;;;34.80;33.05
15263;BME280;7733;51.554;13.590;2023-06-26T13:06:52;99981.38;;;35.35;32.95
15263;BME280;7733;51.554;13.590;2023-06-26T13:09:22;99977.16;;;34.73;32.94
15263;BME280;7733;51.554;13.590;2023-06-26T13:11:47;99979.69;;;34.75;33.76
15263;BME280;7733;51.554;13.590;2023-06-26T13:14:13;99978.91;;;34.37;34.44
15263;BME280;7733;51.554;13.590;2023-06-26T13:16:40;99966.63;;;34.70;32.76
15263;BME280;7733;51.554;13.590;2023-06-26T13:19:06;99969.88;;;34.36;33.68
15263;BME280;7733;51.554;13.590;2023-06-26T13:21:33;99967.69;;;34.32;32.62